ESCF/LPI METAR and TAF weather

Enter ICAO airport designator
Station Type Date Time Source
ESCF METAR 2022/08/16 18:50 UTC NOAA

ESCF 161850Z AUTO 13006KT 100V160 9999 SCT130/// 23/19 Q1008


Station Type Date Time Source
ESCF Decoded METAR 2022/08/16 18:50 UTC NOAA

Linkoping / Malmen, Sweden (ESCF) 58-24N 015-31E 117M
Aug 16, 2022 - 02:50 PM EDT / 2022.08.16 1850 UTC
Wind: from the SE (130 degrees) at 7 MPH (6 KT) (direction variable):0
Visibility: greater than 7 mile(s):0
Sky conditions: partly cloudy
Temperature: 73 F (23 C)
Dew Point: 66 F (19 C)
Relative Humidity: 78%
Pressure (altimeter): 29.77 in. Hg (1008 hPa)
ob: ESCF 161850Z AUTO 13006KT 100V160 9999 SCT130/// 23/19 Q1008
cycle: 19

Station Type Date Time Source
ESCF TAF UTC NOAA

Error!

Example: see airport list